Big Bear Station Historical Data
Daily Summary for December 5, 2017 Units:  English    Metric   Both
« Previous Day
Next Day »
Daily Weekly Monthly Yearly Custom
  High: Low: Average:
Temperature: 35.1 °F 19.2 °F 25.8 °F
Dew Point: 7.0 °F 0.0 °F 4.5 °F
Humidity: 56 % 29 % 40 %
Wind Speed: 4.7 mph 0.0 mph 0.8 mph
Wind Gust: -999.0 mph - -
Wind:- - SSW
Pressure: 30.24 in 30.15 in -
Precipitation: 0.00 in    
Historical Graphs
 
 
Tabular Data for December 5, 2017
Time Temperature Dew Point Pressure Wind Wind Speed Wind Gust Humidity Rainfall Rate (Hourly)
00:07 22.5 °F 5.3 °F 30.15 in Calm   -999.0 mph 47 % 0 in
00:22 22.5 °F 5.7 °F 30.15 in ESE 1.7 mph -999.0 mph 48 % 0 in
00:37 22.5 °F 5.3 °F 30.15 in Calm   -999.0 mph 47 % 0 in
00:52 22.6 °F 4.9 °F 30.15 in Calm   -999.0 mph 46 % 0 in
01:08 22.5 °F 5.3 °F 30.16 in Calm   -999.0 mph 47 % 0 in
01:23 22.3 °F 5.1 °F 30.16 in Calm   -999.0 mph 47 % 0 in
01:38 21.9 °F 5.2 °F 30.16 in Calm   -999.0 mph 48 % 0 in
01:53 21.9 °F 5.6 °F 30.16 in South 2.2 mph -999.0 mph 49 % 0 in
02:08 21.6 °F 5.4 °F 30.15 in Calm   -999.0 mph 49 % 0 in
02:39 21.6 °F 6.2 °F 30.15 in Calm   -999.0 mph 51 % 0 in
02:54 21.6 °F 6.2 °F 30.15 in Calm   -999.0 mph 51 % 0 in
03:09 21.4 °F 6.1 °F 30.15 in Calm   -999.0 mph 51 % 0 in
03:24 21.6 °F 6.2 °F 30.15 in Calm   -999.0 mph 51 % 0 in
03:40 21.0 °F 6.1 °F 30.16 in Calm   -999.0 mph 52 % 0 in
03:55 20.7 °F 6.3 °F 30.16 in Calm   -999.0 mph 53 % 0 in
04:10 20.1 °F 5.7 °F 30.16 in Calm   -999.0 mph 53 % 0 in
04:25 19.8 °F 6.2 °F 30.16 in Calm   -999.0 mph 55 % 0 in
04:40 19.2 °F 5.7 °F 30.17 in Calm   -999.0 mph 55 % 0 in
04:56 19.8 °F 6.6 °F 30.16 in Calm   -999.0 mph 56 % 0 in
05:11 19.4 °F 6.2 °F 30.17 in Calm   -999.0 mph 56 % 0 in
05:27 19.6 °F 6.0 °F 30.17 in Calm   -999.0 mph 55 % 0 in
05:42 20.5 °F 5.6 °F 30.18 in Calm   -999.0 mph 52 % 0 in
05:57 20.3 °F 5.5 °F 30.18 in NNW 3.2 mph -999.0 mph 52 % 0 in
06:12 21.0 °F 5.3 °F 30.18 in Calm   -999.0 mph 50 % 0 in
06:28 21.0 °F 4.8 °F 30.18 in Calm   -999.0 mph 49 % 0 in
06:43 21.7 °F 5.0 °F 30.18 in ENE 2.7 mph -999.0 mph 48 % 0 in
06:58 21.9 °F 5.6 °F 30.19 in ENE 1.1 mph -999.0 mph 49 % 0 in
07:13 22.3 °F 6.5 °F 30.20 in SSE 1.1 mph -999.0 mph 50 % 0 in
07:29 21.9 °F 5.6 °F 30.20 in NE 1.1 mph -999.0 mph 49 % 0 in
07:44 21.9 °F 5.2 °F 30.21 in Calm   -999.0 mph 48 % 0 in
07:59 22.5 °F 5.3 °F 30.21 in SSE 1.1 mph -999.0 mph 47 % 0 in
08:14 22.8 °F 6.0 °F 30.21 in Calm   -999.0 mph 48 % 0 in
08:29 24.1 °F 5.8 °F 30.21 in Calm   -999.0 mph 45 % 0 in
08:44 25.0 °F 6.1 °F 30.21 in Calm   -999.0 mph 44 % 0 in
09:00 25.5 °F 5.6 °F 30.21 in ENE 1.7 mph -999.0 mph 42 % 0 in
09:15 26.6 °F 4.9 °F 30.22 in SE 3.2 mph -999.0 mph 39 % 0 in
09:30 27.3 °F 5.6 °F 30.22 in SE 3.2 mph -999.0 mph 39 % 0 in
09:46 28.9 °F 5.9 °F 30.22 in WSW 2.7 mph -999.0 mph 37 % 0 in
10:16 30.2 °F 5.8 °F 30.22 in Calm   -999.0 mph 35 % 0 in
10:32 31.8 °F 5.9 °F 30.22 in Calm   -999.0 mph 33 % 0 in
10:47 32.2 °F 6.3 °F 30.21 in NW 1.1 mph -999.0 mph 33 % 0 in
11:02 32.9 °F 6.2 °F 30.21 in Calm   -999.0 mph 32 % 0 in
11:17 34.2 °F 6.7 °F 30.20 in SSW 2.2 mph -999.0 mph 31 % 0 in
11:32 34.7 °F 5.6 °F 30.19 in SE 4.7 mph -999.0 mph 29 % 0 in
11:48 34.7 °F 6.4 °F 30.19 in NNW 4.2 mph -999.0 mph 30 % 0 in
12:03 34.3 °F 6.8 °F 30.19 in WNW 3.2 mph -999.0 mph 31 % 0 in
12:18 34.7 °F 6.4 °F 30.19 in ENE 3.7 mph -999.0 mph 30 % 0 in
12:33 34.9 °F 6.6 °F 30.18 in NNW 3.2 mph -999.0 mph 30 % 0 in
12:49 35.1 °F 6.7 °F 30.19 in ESE 3.7 mph -999.0 mph 30 % 0 in
13:04 34.5 °F 6.9 °F 30.19 in SSE 1.1 mph -999.0 mph 31 % 0 in
13:19 34.0 °F 6.5 °F 30.19 in WNW 1.7 mph -999.0 mph 31 % 0 in
13:34 33.8 °F 7.0 °F 30.19 in Calm   -999.0 mph 32 % 0 in
13:50 33.8 °F 6.3 °F 30.19 in NNW 4.2 mph -999.0 mph 31 % 0 in
14:05 33.4 °F 6.0 °F 30.19 in WSW 2.2 mph -999.0 mph 31 % 0 in
14:20 32.9 °F 5.5 °F 30.19 in Calm   -999.0 mph 31 % 0 in
14:35 32.9 °F 6.2 °F 30.18 in East 1.1 mph -999.0 mph 32 % 0 in
14:51 32.5 °F 6.6 °F 30.18 in East 1.7 mph -999.0 mph 33 % 0 in
15:06 32.5 °F 6.6 °F 30.18 in Calm   -999.0 mph 33 % 0 in
15:21 32.2 °F 5.6 °F 30.19 in Calm   -999.0 mph 32 % 0 in
15:37 31.3 °F 4.8 °F 30.20 in West 1.7 mph -999.0 mph 32 % 0 in
15:52 30.6 °F 4.9 °F 30.21 in Calm   -999.0 mph 33 % 0 in
16:07 29.5 °F 5.2 °F 30.21 in Calm   -999.0 mph 35 % 0 in
16:22 28.6 °F 5.0 °F 30.21 in NNW 1.7 mph -999.0 mph 36 % 0 in
16:37 27.5 °F 4.0 °F 30.21 in Calm   -999.0 mph 36 % 0 in
16:53 27.0 °F 3.6 °F 30.21 in South 2.7 mph -999.0 mph 36 % 0 in
17:08 26.2 °F 3.4 °F 30.21 in Calm   -999.0 mph 37 % 0 in
17:23 25.3 °F 3.2 °F 30.19 in Calm   -999.0 mph 38 % 0 in
17:38 24.6 °F 3.1 °F 30.19 in Calm   -999.0 mph 39 % 0 in
17:54 24.3 °F 2.9 °F 30.20 in Calm   -999.0 mph 39 % 0 in
18:09 23.9 °F 3.1 °F 30.20 in Calm   -999.0 mph 40 % 0 in
18:24 24.4 °F 3.0 °F 30.20 in Calm   -999.0 mph 39 % 0 in
18:39 24.6 °F 3.1 °F 30.20 in Calm   -999.0 mph 39 % 0 in
18:54 24.6 °F 2.0 °F 30.20 in West 1.7 mph -999.0 mph 37 % 0 in
19:10 24.8 °F 2.2 °F 30.21 in Calm   -999.0 mph 37 % 0 in
19:25 25.0 °F 1.8 °F 30.21 in Calm   -999.0 mph 36 % 0 in
19:40 24.4 °F 1.2 °F 30.21 in Calm   -999.0 mph 36 % 0 in
19:55 24.1 °F 1.0 °F 30.21 in Calm   -999.0 mph 36 % 0 in
20:10 24.1 °F 1.0 °F 30.22 in Calm   -999.0 mph 36 % 0 in
20:26 24.3 °F 1.1 °F 30.22 in Calm   -999.0 mph 36 % 0 in
20:41 23.9 °F 0.8 °F 30.22 in Calm   -999.0 mph 36 % 0 in
20:56 24.1 °F 1.0 °F 30.23 in Calm   -999.0 mph 36 % 0 in
21:11 23.7 °F 0.6 °F 30.23 in Calm   -999.0 mph 36 % 0 in
21:26 23.9 °F 0.8 °F 30.23 in Calm   -999.0 mph 36 % 0 in
21:42 24.1 °F 1.6 °F 30.23 in Calm   -999.0 mph 37 % 0 in
21:57 23.7 °F 1.2 °F 30.24 in Calm   -999.0 mph 37 % 0 in
22:27 23.0 °F 0.0 °F 30.24 in Calm   -999.0 mph 36 % 0 in
22:42 23.5 °F 0.4 °F 30.24 in Calm   -999.0 mph 36 % 0 in
22:58 23.5 °F 0.4 °F 30.24 in Calm   -999.0 mph 36 % 0 in
23:13 23.7 °F 0.6 °F 30.24 in Calm   -999.0 mph 36 % 0 in
23:28 23.5 °F 0.4 °F 30.24 in Calm   -999.0 mph 36 % 0 in
23:43 23.2 °F 0.2 °F 30.24 in Calm   -999.0 mph 36 % 0 in
23:59 23.2 °F 0.7 °F 30.24 in Calm   -999.0 mph 37 % 0 in
Big Bear CA Weather
Compliments of Weather Underground - 1.5 mb